Latest Weather Observations for Marree Airport

IDS60801

Issued at 8:32 pm CDT Thursday 29 January 2015 (issued every 30 minutes, with the page automatically refreshed every 10 minutes)

About weather observations | Map of weather stations | Latest weather observations for SA | Other Formats
Station Details ID: 017126 Name: MARREE AERO Lat: -29.66 Lon: 138.07 Height: 50.0 m
Data from the previous 72 hours. | See also: Recent months for locations in South Australia
Date/Time
CDT
Temp
°C
App
Temp
°C
Dew
Point
Rel
Hum
%
Delta-T
°C
Wind Press
QNH
hPa
Press
MSL
hPa
Rain
since 9 am
mm
Dir
 
Spd
km/h
Gust
km/h
Spd
kts
Gust
kts
29/08:30pm 32.4 27.2 7.3 21 13.8 SSW 24 30 13 16 1009.3 - 0.0
29/08:00pm 33.6 27.2 6.8 19 14.7 S 30 35 16 19 1009.0 - 0.0
29/07:30pm 34.5 29.0 7.5 19 15.0 SSW 26 35 14 19 1008.5 - 0.0
29/07:00pm 35.3 33.9 7.4 18 15.6 E 4 9 2 5 1008.3 - 0.0
29/06:30pm 35.1 31.6 7.2 18 15.5 S 15 24 8 13 1008.3 - 0.0
29/06:00pm 35.7 31.4 6.9 17 16.0 ESE 19 22 10 12 1008.3 1008.0 0.0
29/05:30pm 35.2 31.7 7.3 18 15.5 SSW 15 22 8 12 1008.4 - 0.0
29/05:00pm 35.7 30.6 7.7 18 15.7 SE 24 32 13 17 1008.6 - 0.0
29/04:30pm 35.1 33.1 6.4 17 15.7 SW 6 11 3 6 1008.9 - 0.0
29/04:00pm 35.2 30.0 7.3 18 15.5 SSW 24 32 13 17 1009.2 - 0.0
29/03:30pm 34.8 33.0 7.0 18 15.4 S 6 15 3 8 1009.7 - 0.0
29/03:15pm 35.3 29.0 7.4 18 15.6 S 30 37 16 20 1009.8 - 0.0
29/03:00pm 34.7 32.7 6.9 18 15.3 SSW 7 19 4 10 1010.1 1009.8 0.0
29/02:30pm 33.8 31.0 7.0 19 14.7 SSE 11 20 6 11 1010.7 - 0.0
29/02:00pm 34.3 31.0 8.1 20 14.7 WSW 15 24 8 13 1011.0 - 0.0
29/01:30pm 33.7 31.4 7.6 20 14.5 ENE 9 19 5 10 1011.5 - 0.0
29/01:00pm 33.2 30.6 9.3 23 13.6 SE 13 24 7 13 1011.9 - 0.0
29/12:30pm 32.4 30.0 8.6 23 13.3 E 11 17 6 9 1012.2 - 0.0
29/12:00pm 31.7 28.8 8.0 23 13.1 SE 13 26 7 14 1012.5 1012.1 0.0
29/11:30am 30.9 27.1 7.4 23 12.8 SSE 17 24 9 13 1012.6 - 0.0
29/11:00am 30.2 25.9 6.8 23 12.6 SE 19 26 10 14 1012.8 - 0.0
29/10:30am 29.8 25.5 7.1 24 12.2 SSE 19 26 10 14 1012.7 - 0.0
29/10:00am 28.6 23.9 6.1 24 11.9 SSE 20 30 11 16 1012.6 - 0.0
29/09:30am 28.4 23.5 5.3 23 12.0 SSE 20 30 11 16 1012.6 - 0.0
29/09:00am 27.1 21.0 2.9 21 11.9 S 24 30 13 16 1012.6 1012.2 0.0
29/08:30am 25.5 20.2 2.9 23 11.0 S 20 26 11 14 1012.3 - 0.0
29/08:00am 22.6 17.9 3.2 28 9.3 SSE 17 20 9 11 1012.1 - 0.0
29/07:30am 19.1 14.7 2.9 34 7.5 SSE 15 20 8 11 1011.8 - 0.0
29/07:00am 17.6 12.3 2.8 37 6.8 SSE 20 22 11 12 1011.4 - 0.0
29/06:30am 17.7 12.4 2.1 35 7.1 SSE 19 24 10 13 1011.3 - 0.0
29/06:00am 16.4 11.9 2.4 39 6.3 SSE 15 17 8 9 1011.2 1010.8 0.0
29/05:30am 17.4 12.2 2.2 36 6.9 SSE 19 20 10 11 1011.1 - 0.0
29/05:00am 17.6 12.3 2.0 35 7.0 SSE 19 20 10 11 1011.0 - 0.0
29/04:30am 17.1 12.2 2.3 37 6.7 SSE 17 17 9 9 1010.9 - 0.0
29/04:00am 17.8 12.9 2.2 35 7.1 SSE 17 17 9 9 1010.9 - 0.0
29/03:30am 18.1 13.2 2.0 34 7.3 S 17 19 9 10 1010.8 - 0.0
29/03:00am 18.7 14.2 2.1 33 7.6 SSE 15 17 8 9 1010.9 1010.5 0.0
29/02:30am 19.2 15.1 2.1 32 7.8 S 13 15 7 8 1010.9 - 0.0
29/02:00am 20.1 15.3 2.5 31 8.2 S 17 19 9 10 1011.0 - 0.0
29/01:30am 20.0 15.7 3.3 33 7.9 S 15 17 8 9 1011.5 - 0.0
29/01:00am 21.0 17.4 2.8 30 8.6 S 11 13 6 7 1011.8 - 0.0
29/12:30am 21.4 17.0 2.6 29 8.9 S 15 17 8 9 1011.9 - 0.0
29/12:00am 21.8 17.5 3.5 30 8.8 SSW 15 17 8 9 1011.9 1011.5 0.0
 
Date/Time
CDT
Temp
°C
App
Temp
°C
Dew
Point
Rel
Hum
%
Delta-T
°C
Wind Press
QNH
hPa
Press
MSL
hPa
Rain
since 9 am
mm
Dir
 
Spd
km/h
Gust
km/h
Spd
kts
Gust
kts
28/11:30pm 22.8 18.5 3.4 28 9.4 S 15 17 8 9 1011.9 - 0.0
28/11:00pm 22.8 18.9 3.4 28 9.4 S 13 15 7 8 1012.0 - 0.0
28/10:30pm 24.1 20.2 3.4 26 10.1 SE 13 15 7 8 1011.8 - 0.0
28/10:00pm 26.5 21.4 3.1 22 11.5 SE 19 20 10 11 1011.5 - 0.0
28/09:30pm 28.0 22.4 3.7 21 12.2 S 22 28 12 15 1011.4 - 0.0
28/09:00pm 28.2 22.3 3.8 21 12.3 S 24 28 13 15 1010.8 1010.4 0.0
28/08:30pm 28.8 23.7 4.3 21 12.5 SSW 20 26 11 14 1010.2 - 0.0
28/08:00pm 30.0 23.3 3.9 19 13.4 S 28 37 15 20 1009.9 - 0.0
28/07:30pm 30.8 24.5 3.8 18 13.9 S 26 35 14 19 1009.7 - 0.0
28/07:00pm 31.2 24.4 3.3 17 14.2 S 28 35 15 19 1009.5 - 0.0
28/06:30pm 31.6 24.5 3.6 17 14.4 S 30 41 16 22 1009.3 - 0.0
28/06:00pm 31.9 25.1 3.0 16 14.8 S 28 39 15 21 1009.2 1008.9 0.0
28/05:30pm 32.0 24.6 2.1 15 15.0 S 30 41 16 22 1009.1 - 0.0
28/05:00pm 32.2 25.4 3.2 16 14.9 S 28 41 15 22 1009.1 - 0.0
28/04:32pm 31.9 25.1 3.0 16 14.7 S 28 48 15 26 1009.5 - 0.0
28/04:30pm 32.0 25.6 3.1 16 14.8 S 26 48 14 26 1009.5 - 0.0
28/04:19pm 32.0 25.2 3.1 16 14.8 SSE 28 48 15 26 1009.6 - 0.0
28/04:00pm 31.6 25.5 2.7 16 14.6 SSE 24 35 13 19 1009.7 - 0.0
28/03:30pm 31.2 25.2 3.3 17 14.2 SSE 24 35 13 19 1010.0 - 0.0
28/03:00pm 31.0 24.6 3.1 17 14.2 S 26 39 14 21 1010.5 1010.1 0.0
28/02:30pm 31.1 24.7 3.2 17 14.2 S 26 39 14 21 1010.9 - 0.0
28/02:00pm 30.2 23.9 4.0 19 13.4 S 26 48 14 26 1011.3 - 0.0
28/01:30pm 29.7 24.7 4.4 20 13.0 S 20 32 11 17 1011.8 - 0.0
28/01:00pm 28.4 23.3 4.0 21 12.4 SSE 20 32 11 17 1012.3 - 0.0
28/12:30pm 28.5 23.7 5.4 23 12.0 SSE 20 33 11 18 1012.6 - 0.0
28/12:00pm 27.8 22.2 5.4 24 11.6 SSE 24 35 13 19 1012.9 1012.5 0.0
28/11:30am 26.6 21.5 6.1 27 10.7 SSE 22 35 12 19 1013.2 - 0.0
28/11:00am 26.6 20.4 6.1 27 10.7 SE 28 37 15 20 1013.4 - 0.0
28/10:30am 25.4 19.5 5.6 28 10.1 SSE 26 37 14 20 1013.5 - 0.0
28/10:00am 24.2 18.2 5.5 30 9.5 SSE 26 32 14 17 1013.5 - 0.0
28/09:30am 23.6 17.0 6.0 32 9.0 SSE 30 35 16 19 1013.3 - 0.0
28/09:00am 22.7 16.5 6.0 34 8.5 SSE 28 35 15 19 1013.3 1012.9 0.0
28/08:30am 21.7 16.1 5.6 35 8.1 SSE 24 35 13 19 1013.0 - 0.0
28/08:00am 20.0 15.7 7.1 43 6.6 SSE 19 24 10 13 1012.8 - 0.0
28/07:30am 17.6 14.2 7.6 52 5.1 SSE 15 19 8 10 1012.4 - 0.0
28/07:00am 16.3 13.1 7.0 54 4.6 SSE 13 15 7 8 1012.1 - 0.0
28/06:30am 17.5 14.0 7.0 50 5.2 S 15 17 8 9 1011.8 - 0.0
28/06:00am 18.3 14.3 6.5 46 5.9 S 17 19 9 10 1011.5 1011.1 0.0
28/05:30am 18.9 14.3 5.7 42 6.5 S 19 20 10 11 1011.3 - 0.0
28/05:00am 19.1 14.5 5.6 41 6.6 S 19 20 10 11 1011.0 - 0.0
28/04:30am 17.9 14.0 5.2 43 6.1 S 15 17 8 9 1011.0 - 0.0
28/04:00am 18.3 14.9 5.8 44 6.1 SSE 13 15 7 8 1011.0 - 0.0
28/03:30am 18.6 15.5 7.1 47 5.8 SE 13 13 7 7 1010.9 - 0.0
28/03:00am 18.5 15.8 7.3 48 5.7 SE 11 11 6 6 1011.0 1010.6 0.0
28/02:30am 20.1 16.7 7.8 45 6.3 S 15 17 8 9 1011.1 - 0.0
28/02:00am 21.2 17.1 8.5 44 6.7 S 20 26 11 14 1011.2 - 0.0
28/01:30am 21.5 18.1 9.1 45 6.6 S 17 20 9 11 1011.6 - 0.0
28/01:00am 22.1 18.3 8.9 43 7.0 S 19 20 10 11 1011.8 - 0.0
28/12:30am 22.8 18.6 8.1 39 7.8 S 20 26 11 14 1011.6 - 0.0
28/12:00am 23.4 19.0 7.5 36 8.3 S 20 24 11 13 1011.7 1011.3 0.0
 
Date/Time
CDT
Temp
°C
App
Temp
°C
Dew
Point
Rel
Hum
%
Delta-T
°C
Wind Press
QNH
hPa
Press
MSL
hPa
Rain
since 9 am
mm
Dir
 
Spd
km/h
Gust
km/h
Spd
kts
Gust
kts
27/11:30pm 24.5 18.9 7.2 33 9.1 S 26 32 14 17 1011.8 - 0.0
27/11:00pm 25.2 19.5 4.9 27 10.3 S 24 33 13 18 1011.5 - 0.0
27/10:30pm 25.6 20.7 4.1 25 10.7 SE 19 35 10 19 1011.2 - 0.0
27/10:00pm 25.4 21.2 4.0 25 10.6 SSW 15 19 8 10 1011.2 - 0.0
27/09:30pm 26.5 20.9 3.7 23 11.4 SSW 22 28 12 15 1011.0 - 0.0
27/09:00pm 26.8 21.3 4.0 23 11.5 SSW 22 28 12 15 1010.5 1010.1 0.0
27/08:30pm 27.5 21.5 3.2 21 12.1 SSW 24 32 13 17 1010.3 - 0.0
27/08:00pm 28.5 21.8 3.4 20 12.6 SSW 28 32 15 17 1010.1 - 0.0
27/07:30pm 29.2 22.0 3.2 19 13.1 SSW 30 37 16 20 1009.7 - 0.0
27/07:00pm 29.8 23.1 3.7 19 13.3 SSW 28 37 15 20 1009.7 - 0.0
27/06:30pm 30.4 24.9 4.2 19 13.5 S 22 35 12 19 1009.4 - 0.0
27/06:00pm 30.3 23.6 3.4 18 13.7 S 28 44 15 24 1009.3 1009.0 0.0
27/05:30pm 31.1 24.5 4.0 18 14.0 SSW 28 39 15 21 1009.5 - 0.0
27/05:04pm 30.7 24.0 3.7 18 13.8 SSW 28 48 15 26 1009.7 - 0.0
27/05:00pm 30.9 24.6 3.8 18 13.9 S 26 48 14 26 1009.7 - 0.0
27/04:30pm 30.0 24.3 3.1 18 13.6 SE 22 35 12 19 1009.7 - 0.0
27/04:00pm 30.4 24.8 3.4 18 13.7 S 22 39 12 21 1010.1 - 0.0
27/03:30pm 30.3 25.6 3.4 18 13.7 S 17 32 9 17 1010.5 - 0.0
27/03:00pm 29.2 23.6 3.2 19 13.1 S 22 32 12 17 1010.9 1010.5 0.0
27/02:30pm 29.8 26.7 3.7 19 13.3 W 9 20 5 11 1011.5 - 0.0
27/02:00pm 29.3 25.1 4.0 20 12.9 S 15 28 8 15 1011.9 - 0.0
27/01:30pm 28.8 23.8 3.6 20 12.7 SSW 19 30 10 16 1012.4 - 0.0
27/01:00pm 28.2 24.0 3.8 21 12.3 S 15 28 8 15 1012.9 - 0.0
27/12:30pm 27.5 23.4 4.5 23 11.7 S 15 24 8 13 1013.4 - 0.0
27/12:00pm 26.9 22.8 4.6 24 11.3 SE 15 20 8 11 1013.5 1013.1 0.0
27/11:30am 26.2 22.1 4.6 25 10.9 SE 15 22 8 12 1013.8 - 0.0
27/11:00am 25.3 21.3 5.0 27 10.3 SE 15 24 8 13 1014.0 - 0.0
27/10:30am 24.4 20.3 4.2 27 10.0 SE 15 20 8 11 1014.2 - 0.0
27/10:00am 23.5 18.6 4.0 28 9.6 SE 19 24 10 13 1014.2 - 0.0
27/09:30am 23.0 18.3 5.0 31 9.0 SE 19 28 10 15 1014.2 - 0.0
27/09:00am 22.1 17.4 5.1 33 8.4 SE 19 24 10 13 1014.2 1013.8 0.0
27/08:30am 21.0 16.2 5.4 36 7.7 SE 20 26 11 14 1014.2 - 0.0
27/08:00am 19.6 16.1 7.4 45 6.2 SSE 15 20 8 11 1013.9 - 0.0
27/07:30am 18.2 14.4 7.6 50 5.4 SSE 17 20 9 11 1013.4 - 0.0
27/07:00am 17.3 13.6 7.9 54 4.8 S 17 20 9 11 1013.2 - 0.0
27/06:30am 17.1 13.1 8.3 56 4.5 S 19 26 10 14 1012.8 - 0.0
27/06:00am 16.6 13.5 8.8 60 4.0 SSE 15 17 8 9 1012.6 1012.2 0.0
27/05:30am 16.5 13.7 8.7 60 4.0 SSE 13 13 7 7 1012.4 - 0.0
27/05:00am 17.5 14.4 8.9 57 4.5 SSE 15 19 8 10 1012.1 - 0.0
27/04:30am 18.5 14.8 9.3 55 4.8 S 19 22 10 12 1012.0 - 0.0
27/04:00am 18.7 14.8 9.5 55 4.9 S 20 26 11 14 1012.1 - 0.0
27/03:30am 18.9 15.0 9.4 54 5.0 S 20 24 11 13 1012.0 - 0.0
27/03:00am 19.4 14.8 9.6 53 5.2 S 24 30 13 16 1012.0 1011.6 0.0
27/02:30am 19.8 15.1 9.4 51 5.5 SSE 24 32 13 17 1012.2 - 0.0
27/02:00am 20.6 15.4 8.9 47 6.2 S 26 33 14 18 1012.3 - 0.0
27/01:30am 21.1 15.9 9.0 46 6.4 S 26 33 14 18 1012.5 - 0.0
27/01:00am 21.6 15.8 8.1 42 7.1 S 28 33 15 18 1012.9 - 0.0
27/12:30am 22.3 15.6 7.3 38 7.8 S 32 41 17 22 1013.0 - 0.0
27/12:00am 22.9 15.9 5.8 33 8.7 S 32 43 17 23 1013.1 1012.7 0.0
 
Date/Time
CDT
Temp
°C
App
Temp
°C
Dew
Point
Rel
Hum
%
Delta-T
°C
Wind Press
QNH
hPa
Press
MSL
hPa
Rain
since 9 am
mm
Dir
 
Spd
km/h
Gust
km/h
Spd
kts
Gust
kts
26/11:30pm 23.2 17.7 2.1 25 10.0 S 20 30 11 16 1013.2 - 0.0
26/11:00pm 22.7 18.3 2.8 27 9.5 S 15 19 8 10 1013.1 - 0.0
26/10:30pm 23.1 18.8 3.1 27 9.6 SSW 15 17 8 9 1013.1 - 0.0
26/10:00pm 24.1 19.4 2.9 25 10.2 SSW 17 20 9 11 1012.9 - 0.0
26/09:30pm 25.2 19.8 2.6 23 10.9 SSW 20 28 11 15 1012.7 - 0.0
26/09:00pm 25.9 19.8 2.6 22 11.3 SSW 24 30 13 16 1012.4 1012.0 0.0

Other Formats:

Comma delimited format used in spreadsheet applications
http://www.bom.gov.au/fwo/IDS60801/IDS60801.95480.axf

JavaScript Object Notation format (JSON) in row-major order
http://www.bom.gov.au/fwo/IDS60801/IDS60801.95480.json